createdAt,value
2023-06-04T00:02:02.616Z,98396.25
2023-06-04T00:04:29.603Z,98395.03
2023-06-04T00:06:56.556Z,98388.84
2023-06-04T00:09:23.506Z,98389.91
2023-06-04T00:11:50.743Z,98392.50
2023-06-04T00:14:17.817Z,98391.56
2023-06-04T00:16:44.519Z,98383.19
2023-06-04T00:19:11.323Z,98382.78
2023-06-04T00:21:38.259Z,98383.63
2023-06-04T00:24:05.348Z,98374.72
2023-06-04T00:26:32.049Z,98374.84
2023-06-04T00:28:58.791Z,98372.31
2023-06-04T00:31:25.938Z,98385.34
2023-06-04T00:33:53.070Z,98378.94
2023-06-04T00:36:22.772Z,98389.88
2023-06-04T00:38:49.561Z,98383.69
2023-06-04T00:41:16.317Z,98384.66
2023-06-04T00:43:46.820Z,98394.63
2023-06-04T00:46:19.280Z,98383.69
2023-06-04T00:48:46.469Z,98382.19
2023-06-04T00:51:13.649Z,98383.69
2023-06-04T00:53:40.687Z,98393.72
2023-06-04T00:56:07.783Z,98369.00
2023-06-04T00:58:39.962Z,98385.31
2023-06-04T01:01:13.834Z,98386.97
2023-06-04T01:03:46.653Z,98390.66
2023-06-04T01:06:22.330Z,98394.50
2023-06-04T01:08:55.406Z,98391.38
2023-06-04T01:11:40.011Z,98393.53
2023-06-04T01:14:11.386Z,98390.78
2023-06-04T01:17:02.669Z,98384.63
2023-06-04T01:19:52.500Z,98377.63
2023-06-04T01:23:00.977Z,98379.31
2023-06-04T01:25:35.379Z,98378.09
2023-06-04T01:28:04.326Z,98386.97
2023-06-04T01:30:34.664Z,98384.50
2023-06-04T01:33:04.053Z,98382.44
2023-06-04T01:35:32.394Z,98395.44
2023-06-04T01:37:59.614Z,98390.00
2023-06-04T01:40:27.365Z,98401.78
2023-06-04T01:42:54.847Z,98398.47
2023-06-04T01:45:24.860Z,98399.31
2023-06-04T01:47:52.471Z,98400.66
2023-06-04T01:50:19.559Z,98396.28
2023-06-04T01:52:46.670Z,98391.09
2023-06-04T01:55:15.658Z,98387.53
2023-06-04T01:57:46.742Z,98382.84
2023-06-04T02:00:15.549Z,98376.53
2023-06-04T02:02:44.881Z,98381.59
2023-06-04T02:05:11.844Z,98385.31
2023-06-04T02:07:40.406Z,98381.19
2023-06-04T02:10:10.525Z,98385.84
2023-06-04T02:12:39.221Z,98383.94
2023-06-04T02:15:07.663Z,98393.91
2023-06-04T02:17:38.633Z,98385.28
2023-06-04T02:22:33.651Z,98397.78
2023-06-04T02:25:01.021Z,98395.16
2023-06-04T02:27:27.716Z,98398.16
2023-06-04T02:29:54.686Z,98409.28
2023-06-04T02:32:21.935Z,98419.13
2023-06-04T02:34:49.938Z,98423.38
2023-06-04T02:37:16.596Z,98430.25
2023-06-04T02:39:43.465Z,98431.91
2023-06-04T02:42:10.464Z,98429.41
2023-06-04T02:44:37.370Z,98426.94
2023-06-04T02:47:04.823Z,98435.59
2023-06-04T02:49:31.946Z,98408.03
2023-06-04T02:51:58.787Z,98437.09
2023-06-04T02:54:25.652Z,98437.09
2023-06-04T02:56:52.489Z,98437.09
2023-06-04T02:59:19.200Z,98435.44
2023-06-04T03:01:46.055Z,98441.03
2023-06-04T03:04:16.571Z,98440.09
2023-06-04T03:06:47.505Z,98440.94
2023-06-04T03:09:14.670Z,98435.97
2023-06-04T03:11:41.533Z,98438.34
2023-06-04T03:14:09.238Z,98439.72
2023-06-04T03:16:41.009Z,98444.75
2023-06-04T03:19:07.921Z,98448.19
2023-06-04T03:21:34.739Z,98436.78
2023-06-04T03:24:01.614Z,98441.72
2023-06-04T03:26:28.890Z,98438.69
2023-06-04T03:28:55.936Z,98446.78
2023-06-04T03:31:23.007Z,98444.59
2023-06-04T03:33:50.511Z,98444.03
2023-06-04T03:36:17.612Z,98452.09
2023-06-04T03:38:46.769Z,98454.97
2023-06-04T03:41:13.589Z,98464.44
2023-06-04T03:43:41.342Z,98452.81
2023-06-04T03:46:10.504Z,98464.69
2023-06-04T03:48:37.653Z,98469.22
2023-06-04T03:51:04.901Z,98465.94
2023-06-04T03:53:33.049Z,98471.00
2023-06-04T03:56:00.569Z,98466.47
2023-06-04T03:58:29.746Z,98468.81
2023-06-04T04:00:58.255Z,98469.66
2023-06-04T04:03:25.003Z,98466.91
2023-06-04T04:05:52.158Z,98462.50
2023-06-04T04:08:22.242Z,98464.31
2023-06-04T04:10:49.276Z,98458.13
2023-06-04T04:13:16.179Z,98464.16
2023-06-04T04:15:44.199Z,98456.09
2023-06-04T04:18:12.038Z,98461.56
2023-06-04T04:20:40.422Z,98453.63
2023-06-04T04:23:10.496Z,98456.34
2023-06-04T04:25:39.313Z,98462.75
2023-06-04T04:28:08.154Z,98456.19
2023-06-04T04:30:36.448Z,98452.19
2023-06-04T04:33:06.275Z,98450.00
2023-06-04T04:35:38.234Z,98441.09
2023-06-04T04:38:06.136Z,98441.88
2023-06-04T04:40:39.256Z,98432.84
2023-06-04T04:43:08.082Z,98432.84
2023-06-04T04:45:35.993Z,98435.31
2023-06-04T04:48:04.811Z,98439.53
2023-06-04T04:50:33.117Z,98427.13
2023-06-04T04:53:00.625Z,98442.44
2023-06-04T04:55:27.814Z,98426.66
2023-06-04T04:57:54.719Z,98430.88
2023-06-04T05:00:23.045Z,98424.47
2023-06-04T05:02:53.506Z,98421.34
2023-06-04T05:05:20.533Z,98418.28
2023-06-04T05:07:49.456Z,98420.94
2023-06-04T05:10:18.579Z,98425.31
2023-06-04T05:12:55.799Z,98422.88
2023-06-04T05:15:27.899Z,98427.94
2023-06-04T05:17:57.415Z,98432.31
2023-06-04T05:20:27.087Z,98442.28
2023-06-04T05:22:56.321Z,98447.25
2023-06-04T05:25:23.890Z,98445.81
2023-06-04T05:27:51.551Z,98450.06
2023-06-04T05:30:20.176Z,98453.91
2023-06-04T05:32:47.037Z,98454.34
2023-06-04T05:35:16.301Z,98457.75
2023-06-04T05:37:46.685Z,98450.66
2023-06-04T05:40:15.669Z,98445.59
2023-06-04T05:42:42.597Z,98458.88
2023-06-04T05:45:10.827Z,98452.56
2023-06-04T05:47:39.068Z,98445.47
2023-06-04T05:50:07.026Z,98445.75
2023-06-04T05:52:35.525Z,98442.03
2023-06-04T05:55:02.593Z,98440.41
2023-06-04T05:57:29.402Z,98445.19
2023-06-04T05:59:57.052Z,98445.72
2023-06-04T06:02:24.104Z,98447.81
2023-06-04T06:04:50.899Z,98435.34
2023-06-04T06:07:17.681Z,98451.09
2023-06-04T06:09:44.467Z,98448.94
2023-06-04T06:12:11.283Z,98447.41
2023-06-04T06:14:41.105Z,98449.34
2023-06-04T06:17:07.836Z,98453.41
2023-06-04T06:19:34.738Z,98451.53
2023-06-04T06:22:01.539Z,98455.06
2023-06-04T06:24:30.804Z,98451.53
2023-06-04T06:26:57.536Z,98453.84
2023-06-04T06:29:24.851Z,98459.19
2023-06-04T06:31:52.481Z,98457.97
2023-06-04T06:34:19.325Z,98450.97
2023-06-04T06:36:46.015Z,98470.16
2023-06-04T06:39:13.243Z,98468.50
2023-06-04T06:41:40.592Z,98468.91
2023-06-04T06:44:10.577Z,98463.16
2023-06-04T06:46:37.489Z,98477.94
2023-06-04T06:49:04.203Z,98475.59
2023-06-04T06:51:31.137Z,98469.59
2023-06-04T06:53:57.767Z,98469.59
2023-06-04T06:56:24.552Z,98482.16
2023-06-04T06:58:51.298Z,98481.22
2023-06-04T07:01:17.998Z,98482.75
2023-06-04T07:03:44.729Z,98485.75
2023-06-04T07:06:11.599Z,98482.59
2023-06-04T07:08:38.181Z,98485.47
2023-06-04T07:11:05.164Z,98486.31
2023-06-04T07:13:36.369Z,98489.84
2023-06-04T07:16:03.524Z,98487.97
2023-06-04T07:18:30.175Z,98492.06
2023-06-04T07:20:57.750Z,98491.91
2023-06-04T07:23:24.879Z,98491.34
2023-06-04T07:25:52.044Z,98493.53
2023-06-04T07:28:18.738Z,98487.81
2023-06-04T07:30:46.990Z,98490.00
2023-06-04T07:33:13.674Z,98495.19
2023-06-04T07:35:40.756Z,98496.13
2023-06-04T07:38:07.423Z,98492.59
2023-06-04T07:40:34.244Z,98508.19
2023-06-04T07:43:00.944Z,98505.34
2023-06-04T07:45:30.022Z,98502.06
2023-06-04T07:47:57.912Z,98501.13
2023-06-04T07:50:26.039Z,98508.50
2023-06-04T07:52:52.786Z,98511.75
2023-06-04T07:55:19.694Z,98509.31
2023-06-04T07:57:46.477Z,98519.84
2023-06-04T08:00:13.822Z,98509.84
2023-06-04T08:02:40.654Z,98514.22
2023-06-04T08:05:08.008Z,98517.53
2023-06-04T08:07:34.658Z,98519.44
2023-06-04T08:10:01.470Z,98514.81
2023-06-04T08:12:28.144Z,98515.34
2023-06-04T08:14:57.869Z,98499.19
2023-06-04T08:17:25.109Z,98511.78
2023-06-04T08:19:51.940Z,98520.44
2023-06-04T08:22:18.685Z,98515.91
2023-06-04T08:24:46.723Z,98526.97
2023-06-04T08:27:13.574Z,98531.22
2023-06-04T08:29:41.275Z,98522.75
2023-06-04T08:32:08.910Z,98528.50
2023-06-04T08:34:35.940Z,98535.50
2023-06-04T08:37:02.542Z,98531.50
2023-06-04T08:39:29.309Z,98534.13
2023-06-04T08:42:00.852Z,98544.84
2023-06-04T08:44:28.744Z,98541.97
2023-06-04T08:47:03.384Z,98539.22
2023-06-04T08:49:38.606Z,98542.25
2023-06-04T08:52:07.278Z,98545.94
2023-06-04T08:54:34.760Z,98545.09
2023-06-04T08:57:02.429Z,98546.34
2023-06-04T08:59:29.382Z,98547.03
2023-06-04T09:01:56.854Z,98556.22
2023-06-04T09:04:24.124Z,98550.44
2023-06-04T09:06:51.417Z,98556.22
2023-06-04T09:09:18.845Z,98550.59
2023-06-04T09:11:58.548Z,98553.47
2023-06-04T09:14:25.508Z,98556.91
2023-06-04T09:16:55.347Z,98559.50
2023-06-04T09:19:22.514Z,98560.59
2023-06-04T09:21:49.164Z,98553.75
2023-06-04T09:24:16.202Z,98556.75
2023-06-04T09:26:42.951Z,98553.91
2023-06-04T09:29:10.622Z,98555.78
2023-06-04T09:31:41.245Z,98562.09
2023-06-04T09:34:08.697Z,98561.44
2023-06-04T09:36:36.688Z,98565.69
2023-06-04T09:39:06.220Z,98560.59
2023-06-04T09:41:33.385Z,98565.25
2023-06-04T09:44:04.062Z,98561.00
2023-06-04T09:46:32.146Z,98561.94
2023-06-04T09:49:03.913Z,98558.41
2023-06-04T09:51:31.947Z,98557.03
2023-06-04T09:54:03.887Z,98553.47
2023-06-04T09:56:31.029Z,98568.00
2023-06-04T09:59:03.970Z,98560.06
2023-06-04T10:01:31.515Z,98564.72
2023-06-04T10:04:03.551Z,98565.00
2023-06-04T10:06:34.786Z,98556.09
2023-06-04T10:09:06.276Z,98567.59
2023-06-04T10:11:55.809Z,98563.19
2023-06-04T10:14:38.936Z,98558.97
2023-06-04T10:17:07.822Z,98568.97
2023-06-04T10:19:39.092Z,98558.56
2023-06-04T10:22:06.576Z,98568.81
2023-06-04T10:24:33.558Z,98563.06
2023-06-04T10:27:00.548Z,98563.34
2023-06-04T10:29:27.170Z,98563.91
2023-06-04T10:31:57.249Z,98558.00
2023-06-04T10:34:24.115Z,98561.69
2023-06-04T10:36:50.727Z,98556.75
2023-06-04T10:39:27.744Z,98559.50
2023-06-04T10:42:05.267Z,98557.59
2023-06-04T10:44:33.228Z,98557.59
2023-06-04T10:46:59.964Z,98558.28
2023-06-04T10:49:31.192Z,98557.47
2023-06-04T10:52:04.095Z,98553.75
2023-06-04T10:54:30.825Z,98549.66
2023-06-04T10:56:57.545Z,98549.09
2023-06-04T10:59:25.568Z,98554.59
2023-06-04T11:01:52.650Z,98556.75
2023-06-04T11:04:24.519Z,98554.44
2023-06-04T11:07:05.498Z,98549.38
2023-06-04T11:09:35.183Z,98548.81
2023-06-04T11:12:02.947Z,98550.03
2023-06-04T11:14:29.670Z,98554.97
2023-06-04T11:16:56.570Z,98558.13
2023-06-04T11:19:23.687Z,98555.09
2023-06-04T11:21:52.184Z,98549.88
2023-06-04T11:24:18.888Z,98553.59
2023-06-04T11:26:53.662Z,98556.19
2023-06-04T11:29:23.761Z,98560.44
2023-06-04T11:31:50.466Z,98548.66
2023-06-04T11:34:27.536Z,98547.41
2023-06-04T11:36:54.503Z,98545.22
2023-06-04T11:39:22.310Z,98535.06
2023-06-04T11:41:51.524Z,98529.44
2023-06-04T11:44:21.491Z,98526.00
2023-06-04T11:46:50.102Z,98527.00
2023-06-04T11:49:17.714Z,98522.59
2023-06-04T11:51:48.761Z,98521.63
2023-06-04T11:54:17.715Z,98527.38
2023-06-04T11:56:45.703Z,98520.78
2023-06-04T11:59:17.453Z,98516.66
2023-06-04T12:01:46.208Z,98522.44
2023-06-04T12:04:17.489Z,98512.28
2023-06-04T12:06:58.831Z,98512.69
2023-06-04T12:09:30.127Z,98507.47
2023-06-04T12:12:00.925Z,98509.13
2023-06-04T12:14:29.527Z,98506.09
2023-06-04T12:16:59.950Z,98499.66
2023-06-04T12:19:27.484Z,98501.88
2023-06-04T12:22:02.779Z,98495.69
2023-06-04T12:24:30.538Z,98494.28
2023-06-04T12:27:09.346Z,98494.28
2023-06-04T12:29:36.807Z,98488.66
2023-06-04T12:32:14.148Z,98482.19
2023-06-04T12:34:41.584Z,98479.06
2023-06-04T12:37:09.577Z,98478.59
2023-06-04T12:39:38.135Z,98474.59
2023-06-04T12:42:07.885Z,98464.88
2023-06-04T12:44:36.775Z,98468.69
2023-06-04T12:47:04.215Z,98461.09
2023-06-04T12:49:31.308Z,98467.78
2023-06-04T12:51:58.426Z,98458.88
2023-06-04T12:54:26.119Z,98466.03
2023-06-04T12:56:52.964Z,98456.56
2023-06-04T12:59:19.772Z,98458.56
2023-06-04T13:01:46.441Z,98452.25
2023-06-04T13:04:13.390Z,98447.56
2023-06-04T13:06:40.171Z,98453.84
2023-06-04T13:09:10.001Z,98441.47
2023-06-04T13:11:42.906Z,98434.81
2023-06-04T13:14:10.744Z,98437.91
2023-06-04T13:16:39.147Z,98428.06
2023-06-04T13:19:06.948Z,98422.69
2023-06-04T13:21:33.900Z,98424.75
2023-06-04T13:24:00.959Z,98423.72
2023-06-04T13:26:27.781Z,98422.00
2023-06-04T13:28:54.525Z,98423.16
2023-06-04T13:31:21.282Z,98419.91
2023-06-04T13:33:48.096Z,98413.88
2023-06-04T13:36:14.723Z,98421.06
2023-06-04T13:38:44.245Z,98417.16
2023-06-04T13:41:11.252Z,98401.16
2023-06-04T13:43:37.941Z,98405.25
2023-06-04T13:46:05.120Z,98401.69
2023-06-04T13:48:32.055Z,98397.94
2023-06-04T13:50:58.924Z,98401.94
2023-06-04T13:53:25.584Z,98382.97
2023-06-04T13:55:58.734Z,98387.44
2023-06-04T13:58:26.412Z,98393.97
2023-06-04T14:00:53.447Z,98387.13
2023-06-04T14:03:20.333Z,98384.50
2023-06-04T14:05:47.135Z,98380.72
2023-06-04T14:08:14.004Z,98375.81
2023-06-04T14:10:43.834Z,98369.78
2023-06-04T14:13:10.693Z,98375.66
2023-06-04T14:15:37.951Z,98371.88
2023-06-04T14:18:06.138Z,98366.50
2023-06-04T14:20:32.956Z,98359.44
2023-06-04T14:23:00.753Z,98350.09
2023-06-04T14:25:28.574Z,98358.75
2023-06-04T14:27:55.611Z,98350.75
2023-06-04T14:30:22.527Z,98347.13
2023-06-04T14:32:49.586Z,98342.50
2023-06-04T14:35:16.324Z,98342.66
2023-06-04T14:37:43.113Z,98329.75
2023-06-04T14:40:10.165Z,98336.47
2023-06-04T14:42:36.966Z,98325.13
2023-06-04T14:45:04.379Z,98315.97
2023-06-04T14:47:31.258Z,98312.41
2023-06-04T14:49:58.067Z,98311.25
2023-06-04T14:52:24.761Z,98311.25
2023-06-04T14:54:54.055Z,98309.94
2023-06-04T14:57:22.494Z,98306.34
2023-06-04T14:59:49.676Z,98302.59
2023-06-04T15:02:20.672Z,98301.31
2023-06-04T15:04:48.148Z,98300.66
2023-06-04T15:07:15.019Z,98306.72
2023-06-04T15:09:41.761Z,98299.56
2023-06-04T15:12:08.422Z,98302.78
2023-06-04T15:14:35.225Z,98294.22
2023-06-04T15:17:02.046Z,98302.41
2023-06-04T15:19:28.835Z,98306.34
2023-06-04T15:21:55.520Z,98300.44
2023-06-04T15:24:22.995Z,98308.00
2023-06-04T15:26:50.770Z,98304.34
2023-06-04T15:29:17.863Z,98306.28
2023-06-04T15:31:44.801Z,98310.25
2023-06-04T15:34:11.709Z,98318.41
2023-06-04T15:36:39.041Z,98315.03
2023-06-04T15:39:06.327Z,98312.38
2023-06-04T15:41:33.142Z,98315.06
2023-06-04T15:44:02.969Z,98301.16
2023-06-04T15:46:30.231Z,98306.44
2023-06-04T15:48:57.276Z,98306.59
2023-06-04T15:51:24.533Z,98306.59
2023-06-04T15:53:52.647Z,98308.72
2023-06-04T15:56:20.276Z,98304.97
2023-06-04T15:58:47.074Z,98289.59
2023-06-04T16:01:13.964Z,98298.41
2023-06-04T16:03:40.876Z,98302.50
2023-06-04T16:06:08.607Z,98303.16
2023-06-04T16:08:35.857Z,98305.31
2023-06-04T16:11:02.778Z,98300.91
2023-06-04T16:13:29.479Z,98299.59
2023-06-04T16:15:57.136Z,98303.56
2023-06-04T16:18:23.896Z,98305.03
2023-06-04T16:20:50.897Z,98296.50
2023-06-04T16:23:17.731Z,98301.09
2023-06-04T16:25:44.843Z,98294.41
2023-06-04T16:28:11.745Z,98285.88
2023-06-04T16:30:38.621Z,98286.00
2023-06-04T16:33:07.071Z,98284.41
2023-06-04T16:35:34.485Z,98276.22
2023-06-04T16:38:01.259Z,98282.25
2023-06-04T16:40:30.036Z,98268.53
2023-06-04T16:42:56.785Z,98282.13
2023-06-04T16:45:23.812Z,98276.72
2023-06-04T16:47:50.637Z,98288.31
2023-06-04T16:50:17.701Z,98287.03
2023-06-04T16:52:44.631Z,98284.56
2023-06-04T16:55:11.538Z,98280.31
2023-06-04T16:57:38.914Z,98284.41
2023-06-04T17:00:24.265Z,98282.13
2023-06-04T17:02:53.338Z,98279.00
2023-06-04T17:05:24.521Z,98288.19
2023-06-04T17:07:53.066Z,98289.16
2023-06-04T17:10:20.152Z,98284.75
2023-06-04T17:12:47.288Z,98293.09
2023-06-04T17:15:14.036Z,98293.09
2023-06-04T17:17:40.879Z,98293.59
2023-06-04T17:20:08.300Z,98288.50
2023-06-04T17:22:34.984Z,98295.66
2023-06-04T17:25:01.935Z,98297.31
2023-06-04T17:27:28.722Z,98300.25
2023-06-04T17:29:55.745Z,98292.25
2023-06-04T17:32:22.543Z,98297.66
2023-06-04T17:34:51.215Z,98301.91
2023-06-04T17:37:18.015Z,98299.28
2023-06-04T17:39:45.260Z,98292.41
2023-06-04T17:42:12.040Z,98290.78
2023-06-04T17:44:38.839Z,98295.66
2023-06-04T17:47:06.811Z,98295.63
2023-06-04T17:49:34.164Z,98298.09
2023-06-04T17:52:00.984Z,98298.44
2023-06-04T17:54:27.777Z,98289.78
2023-06-04T17:56:54.492Z,98291.59
2023-06-04T17:59:21.116Z,98302.53
2023-06-04T18:01:48.371Z,98299.75
2023-06-04T18:04:15.432Z,98292.91
2023-06-04T18:06:42.750Z,98295.50
2023-06-04T18:09:09.606Z,98304.00
2023-06-04T18:11:36.481Z,98300.22
2023-06-04T18:14:05.944Z,98311.50
2023-06-04T18:16:32.744Z,98306.91
2023-06-04T18:18:59.623Z,98303.84
2023-06-04T18:21:26.754Z,98310.03
2023-06-04T18:23:54.420Z,98313.13
2023-06-04T18:26:21.812Z,98314.94
2023-06-04T18:28:48.512Z,98313.91
2023-06-04T18:31:15.397Z,98317.34
2023-06-04T18:33:53.069Z,98332.22
2023-06-04T18:36:20.889Z,98326.28
2023-06-04T18:38:47.646Z,98329.47
2023-06-04T18:41:16.142Z,98327.53
2023-06-04T18:43:42.938Z,98328.50
2023-06-04T18:46:10.128Z,98334.38
2023-06-04T18:48:37.265Z,98338.03
2023-06-04T18:51:03.998Z,98334.53
2023-06-04T18:53:30.737Z,98339.56
2023-06-04T18:55:58.695Z,98339.34
2023-06-04T18:58:25.691Z,98345.03
2023-06-04T19:00:52.695Z,98342.50
2023-06-04T19:03:20.902Z,98343.13
2023-06-04T19:05:51.613Z,98343.13
2023-06-04T19:08:18.665Z,98354.47
2023-06-04T19:10:52.671Z,98345.34
2023-06-04T19:13:20.149Z,98356.78
2023-06-04T19:15:46.915Z,98359.00
2023-06-04T19:18:13.744Z,98364.91
2023-06-04T19:20:40.433Z,98362.00
2023-06-04T19:23:07.383Z,98364.59
2023-06-04T19:25:34.108Z,98375.38
2023-06-04T19:28:00.946Z,98374.06
2023-06-04T19:30:27.992Z,98367.81
2023-06-04T19:32:54.842Z,98380.38
2023-06-04T19:35:21.778Z,98380.84
2023-06-04T19:37:48.645Z,98379.81
2023-06-04T19:40:19.169Z,98386.16
2023-06-04T19:42:46.162Z,98388.47
2023-06-04T19:45:13.229Z,98385.00
2023-06-04T19:47:40.122Z,98381.84
2023-06-04T19:50:07.600Z,98398.00
2023-06-04T19:52:34.497Z,98390.50
2023-06-04T19:55:01.333Z,98401.53
2023-06-04T19:57:28.055Z,98407.88
2023-06-04T19:59:55.106Z,98406.59
2023-06-04T20:02:22.271Z,98400.38
2023-06-04T20:04:52.854Z,98405.84
2023-06-04T20:07:20.685Z,98408.75
2023-06-04T20:09:47.658Z,98413.66
2023-06-04T20:12:16.068Z,98415.53
2023-06-04T20:14:43.071Z,98412.09
2023-06-04T20:17:10.054Z,98410.53
2023-06-04T20:19:36.833Z,98426.19
2023-06-04T20:22:03.665Z,98426.06
2023-06-04T20:24:30.872Z,98427.00
2023-06-04T20:26:58.415Z,98431.19
2023-06-04T20:29:25.403Z,98426.50
2023-06-04T20:31:52.098Z,98429.91
2023-06-04T20:34:20.007Z,98430.38
2023-06-04T20:36:46.906Z,98432.34
2023-06-04T20:39:13.701Z,98424.03
2023-06-04T20:41:41.022Z,98434.19
2023-06-04T20:44:08.017Z,98440.59
2023-06-04T20:46:34.983Z,98440.84
2023-06-04T20:49:04.481Z,98443.78
2023-06-04T20:51:32.751Z,98442.97
2023-06-04T20:53:59.560Z,98446.00
2023-06-04T20:56:28.397Z,98453.16
2023-06-04T20:58:55.134Z,98445.09
2023-06-04T21:01:21.917Z,98445.94
2023-06-04T21:03:48.762Z,98447.72
2023-06-04T21:06:16.198Z,98453.16
2023-06-04T21:08:43.020Z,98450.25
2023-06-04T21:11:10.076Z,98460.16
2023-06-04T21:13:36.912Z,98469.53
2023-06-04T21:16:03.816Z,98465.72
2023-06-04T21:18:30.933Z,98481.66
2023-06-04T21:20:57.682Z,98477.72
2023-06-04T21:23:24.458Z,98483.72
2023-06-04T21:25:51.369Z,98483.41
2023-06-04T21:28:18.155Z,98491.09
2023-06-04T21:30:45.040Z,98480.06
2023-06-04T21:33:11.811Z,98492.97
2023-06-04T21:35:38.652Z,98500.63
2023-06-04T21:38:05.464Z,98501.72
2023-06-04T21:40:32.276Z,98500.25
2023-06-04T21:42:59.097Z,98501.50
2023-06-04T21:45:26.812Z,98496.28
2023-06-04T21:47:53.996Z,98483.69
2023-06-04T21:50:20.968Z,98500.97
2023-06-04T21:52:47.684Z,98499.47
2023-06-04T21:55:14.427Z,98498.09
2023-06-04T21:57:41.114Z,98499.16
2023-06-04T22:00:09.059Z,98504.13
2023-06-04T22:02:41.333Z,98501.88
2023-06-04T22:05:08.971Z,98506.94
2023-06-04T22:07:35.815Z,98505.47
2023-06-04T22:10:02.474Z,98502.88
2023-06-04T22:12:29.425Z,98513.28
2023-06-04T22:14:56.202Z,98511.19
2023-06-04T22:17:22.913Z,98503.38
2023-06-04T22:19:49.708Z,98507.34
2023-06-04T22:22:16.366Z,98510.75
2023-06-04T22:24:43.347Z,98508.00
2023-06-04T22:27:10.160Z,98506.78
2023-06-04T22:29:37.306Z,98506.69
2023-06-04T22:32:03.988Z,98509.94
2023-06-04T22:34:31.050Z,98514.88
2023-06-04T22:36:57.719Z,98511.59
2023-06-04T22:39:24.394Z,98507.19
2023-06-04T22:41:51.132Z,98503.94
2023-06-04T22:44:17.939Z,98505.19
2023-06-04T22:46:44.628Z,98506.94
2023-06-04T22:49:12.584Z,98496.81
2023-06-04T22:51:40.168Z,98493.53
2023-06-04T22:54:07.516Z,98498.03
2023-06-04T22:56:34.511Z,98496.16
2023-06-04T22:59:01.331Z,98498.91
2023-06-04T23:01:28.132Z,98492.69
2023-06-04T23:03:55.056Z,98498.75
2023-06-04T23:06:22.096Z,98494.34
2023-06-04T23:08:48.941Z,98495.84
2023-06-04T23:11:15.734Z,98488.47
2023-06-04T23:13:42.598Z,98490.72
2023-06-04T23:16:09.450Z,98490.09
2023-06-04T23:18:36.277Z,98493.66
2023-06-04T23:21:02.956Z,98494.63
2023-06-04T23:23:29.737Z,98493.81
2023-06-04T23:25:58.209Z,98488.34
2023-06-04T23:28:24.928Z,98493.31
2023-06-04T23:30:51.580Z,98492.59
2023-06-04T23:33:18.391Z,98481.41
2023-06-04T23:35:45.122Z,98490.44
2023-06-04T23:38:12.035Z,98486.19
2023-06-04T23:40:38.853Z,98463.91
2023-06-04T23:43:05.541Z,98482.13
2023-06-04T23:45:32.187Z,98487.88
2023-06-04T23:47:59.320Z,98486.91
2023-06-04T23:50:25.968Z,98484.72
2023-06-04T23:52:52.756Z,98480.16
2023-06-04T23:55:19.567Z,98477.28
2023-06-04T23:57:46.295Z,98486.59
